Time;durP1;ratioP1;P1;durP2;ratioP2;P2;SDS_P1;SDS_P2;PMS_P1;PMS_P2;Temp;Humidity;BMP_temperature;BMP_pressure;BME280_temperature;BME280_humidity;BME280_pressure;Samples;Min_cycle;Max_cycle;Signal;HPM_P1;HPM_P2
2022/10/22 00:03:28;;;;;;;11.07;4.95;;;;;;;11.14;100.00;100639.75;10492431;28;20044;-61
2022/10/22 00:08:30;;;;;;;9.73;4.90;;;;;;;11.00;100.00;100636.03;10495314;28;20098;-62
2022/10/22 00:13:34;;;;;;;10.85;4.50;;;;;;;10.88;100.00;100634.84;10494669;28;20053;-62
2022/10/22 00:18:37;;;;;;;13.13;4.80;;;;;;;10.86;100.00;100631.47;10494451;28;20454;-61
2022/10/22 00:23:41;;;;;;;12.93;4.20;;;;;;;10.66;100.00;100624.56;10494596;28;20066;-62
2022/10/22 00:28:44;;;;;;;26.90;5.10;;;;;;;10.55;100.00;100625.06;10494488;28;20135;-63
2022/10/22 00:33:47;;;;;;;15.38;5.13;;;;;;;10.55;100.00;100638.94;10491944;28;20052;-63
2022/10/22 00:38:49;;;;;;;12.77;6.07;;;;;;;10.80;100.00;100637.81;10494271;28;20044;-62
2022/10/22 00:44:01;;;;;;;10.30;6.60;;;;;;;11.14;100.00;100634.53;10494143;28;20048;-62
2022/10/22 00:49:04;;;;;;;15.18;7.22;;;;;;;11.48;100.00;100632.88;10494022;28;20116;-62
2022/10/22 00:54:08;;;;;;;15.68;6.53;;;;;;;11.51;100.00;100637.97;10494952;28;20063;-61
2022/10/22 00:59:15;;;;;;;15.80;6.70;;;;;;;11.51;100.00;100640.56;10493656;28;20511;-62
2022/10/22 01:04:20;;;;;;;12.93;6.30;;;;;;;11.75;100.00;100629.81;10491331;28;20492;-62
2022/10/22 01:09:34;;;;;;;16.52;6.63;;;;;;;11.81;100.00;100632.09;10493718;28;20052;-61
2022/10/22 01:14:57;;;;;;;16.88;6.97;;;;;;;11.77;100.00;100635.78;10496100;28;20090;-62
2022/10/22 01:20:19;;;;;;;17.00;7.82;;;;;;;11.92;100.00;100635.94;10501216;28;20052;-61
2022/10/22 01:25:34;;;;;;;19.48;6.65;;;;;;;11.82;100.00;100631.19;10500517;28;20067;-61
2022/10/22 01:30:41;;;;;;;14.80;7.05;;;;;;;11.88;100.00;100642.25;10500391;28;20104;-62
2022/10/22 01:35:45;;;;;;;12.55;6.60;;;;;;;11.82;100.00;100639.03;10497326;28;20075;-62
2022/10/22 01:40:48;;;;;;;15.05;6.63;;;;;;;11.83;100.00;100630.25;10500429;28;20078;-61
2022/10/22 01:45:58;;;;;;;14.77;6.32;;;;;;;11.90;100.00;100619.50;10499548;28;20090;-61
2022/10/22 01:51:30;;;;;;;12.45;6.32;;;;;;;11.71;100.00;100628.28;10500096;28;20045;-63
2022/10/22 01:56:56;;;;;;;16.35;7.32;;;;;;;11.66;100.00;100622.41;10499301;28;20068;-63
2022/10/22 02:02:09;;;;;;;15.45;6.93;;;;;;;11.66;100.00;100625.03;10499066;28;20091;-62
2022/10/22 02:07:18;;;;;;;12.98;7.28;;;;;;;11.70;100.00;100630.03;10496291;28;20071;-62
2022/10/22 02:12:25;;;;;;;16.25;6.80;;;;;;;11.77;100.00;100634.97;10498693;28;20113;-62
2022/10/22 02:17:36;;;;;;;16.75;7.72;;;;;;;11.72;100.00;100633.44;10498072;28;20082;-63
2022/10/22 02:22:40;;;;;;;12.43;6.90;;;;;;;11.68;100.00;100633.66;10498645;28;20056;-62
2022/10/22 02:27:49;;;;;;;18.77;6.45;;;;;;;11.69;100.00;100624.88;10497977;28;20060;-63
2022/10/22 02:33:02;;;;;;;15.18;7.28;;;;;;;11.66;100.00;100627.63;10497624;28;20044;-62
2022/10/22 02:38:04;;;;;;;15.50;6.55;;;;;;;11.57;100.00;100627.19;10494975;28;20047;-61
2022/10/22 02:43:07;;;;;;;15.32;7.35;;;;;;;11.54;100.00;100635.19;10497565;28;20090;-61
2022/10/22 02:48:10;;;;;;;17.45;7.05;;;;;;;11.46;100.00;100632.09;10496905;28;20044;-63
2022/10/22 02:53:11;;;;;;;15.50;7.53;;;;;;;11.49;100.00;100639.78;10496864;28;20048;-62
2022/10/22 02:58:13;;;;;;;12.75;7.63;;;;;;;11.39;100.00;100643.81;10496679;28;20408;-62
2022/10/22 03:03:18;;;;;;;17.88;7.65;;;;;;;11.37;100.00;100648.25;10496602;28;20139;-60
2022/10/22 03:08:19;;;;;;;14.98;6.95;;;;;;;11.25;100.00;100645.31;10494546;28;20048;-62
2022/10/22 03:13:21;;;;;;;15.20;6.68;;;;;;;11.33;100.00;100658.00;10496069;28;20102;-63
2022/10/22 03:18:24;;;;;;;14.27;6.40;;;;;;;11.44;100.00;100654.84;10496362;28;20049;-62
2022/10/22 03:23:26;;;;;;;12.68;5.90;;;;;;;11.46;100.00;100653.00;10495782;28;20508;-62
2022/10/22 03:28:28;;;;;;;19.83;6.10;;;;;;;11.51;100.00;100656.25;10495637;28;20105;-63
2022/10/22 03:33:31;;;;;;;12.38;6.25;;;;;;;11.52;100.00;100657.09;10494368;28;20049;-63
2022/10/22 03:38:35;;;;;;;11.68;6.20;;;;;;;11.49;100.00;100663.31;10494638;28;20072;-62
2022/10/22 03:43:39;;;;;;;17.45;5.88;;;;;;;11.55;100.00;100673.47;10495134;28;20399;-63
2022/10/22 03:48:42;;;;;;;12.70;5.88;;;;;;;11.54;100.00;100677.00;10495031;28;20423;-63
2022/10/22 03:53:44;;;;;;;9.15;4.63;;;;;;;11.67;100.00;100679.03;10495084;28;20059;-64
2022/10/22 03:58:46;;;;;;;15.23;5.22;;;;;;;11.56;100.00;100690.84;10495295;28;20068;-62
2022/10/22 04:03:49;;;;;;;13.13;4.85;;;;;;;11.60;100.00;100681.06;10493003;28;20059;-63
2022/10/22 04:08:51;;;;;;;8.13;4.68;;;;;;;11.75;100.00;100695.16;10494894;28;20052;-62
2022/10/22 04:13:54;;;;;;;;;;;;;;;11.87;100.00;100692.84;10494880;28;20586;-63
2022/10/22 04:18:57;;;;;;;12.50;4.90;;;;;;;11.71;100.00;100693.63;10494533;28;20044;-63
2022/10/22 04:23:59;;;;;;;8.15;4.55;;;;;;;11.82;100.00;100696.56;10494250;28;20091;-63
2022/10/22 04:29:01;;;;;;;13.23;3.90;;;;;;;11.92;100.00;100701.31;10494259;28;20052;-62
2022/10/22 04:34:04;;;;;;;8.80;4.93;;;;;;;11.82;100.00;100701.78;10491845;28;20048;-61
2022/10/22 04:39:06;;;;;;;11.07;4.43;;;;;;;11.80;100.00;100701.00;10494181;28;20045;-62
2022/10/22 04:44:09;;;;;;;12.30;4.35;;;;;;;11.81;100.00;100692.22;10494886;28;20045;-62
2022/10/22 04:49:12;;;;;;;12.13;4.57;;;;;;;11.80;100.00;100695.78;10497913;28;20055;-63
2022/10/22 04:54:15;;;;;;;8.68;4.07;;;;;;;11.75;100.00;100704.75;10502258;28;20058;-63
2022/10/22 04:59:17;;;;;;;15.25;4.53;;;;;;;11.79;100.00;100701.06;10501643;28;20098;-62
2022/10/22 05:04:20;;;;;;;13.95;4.53;;;;;;;11.96;100.00;100708.06;10499226;28;20063;-62
2022/10/22 05:09:22;;;;;;;12.82;4.28;;;;;;;11.93;100.00;100700.38;10503277;28;20412;-61
2022/10/22 05:14:25;;;;;;;;;;;;;;;12.01;100.00;100707.84;10503213;28;20091;-62
2022/10/22 05:19:32;;;;;;;12.68;3.95;;;;;;;12.17;100.00;100721.00;10503282;28;19959;-62
2022/10/22 05:24:35;;;;;;;8.40;3.80;;;;;;;12.21;100.00;100712.06;10502426;28;20048;-63
2022/10/22 05:29:38;;;;;;;7.70;3.80;;;;;;;12.31;100.00;100722.91;10502182;28;20052;-62
2022/10/22 05:34:41;;;;;;;10.43;4.15;;;;;;;12.29;100.00;100723.03;10498453;28;20072;-63
2022/10/22 05:39:42;;;;;;;12.13;4.10;;;;;;;12.25;100.00;100720.63;10500030;28;20134;-63
2022/10/22 05:44:44;;;;;;;7.90;4.15;;;;;;;12.31;100.00;100729.00;10500574;28;20048;-63
2022/10/22 05:49:47;;;;;;;13.15;3.92;;;;;;;12.18;100.00;100727.94;10499991;28;20057;-63
2022/10/22 05:54:49;;;;;;;13.32;4.07;;;;;;;12.13;100.00;100740.41;10500183;28;20048;-63
2022/10/22 05:59:50;;;;;;;13.10;4.20;;;;;;;12.19;100.00;100740.97;10498954;28;20044;-62
2022/10/22 06:04:53;;;;;;;9.23;3.97;;;;;;;12.21;100.00;100752.19;10496904;28;20086;-62
2022/10/22 06:09:55;;;;;;;14.52;4.60;;;;;;;12.14;100.00;100763.88;10499487;28;20102;-63
2022/10/22 06:14:58;;;;;;;;;;;;;;;12.17;100.00;100762.88;10457879;28;20052;-62
2022/10/22 06:20:01;;;;;;;17.88;4.28;;;;;;;12.13;100.00;100767.41;10457409;28;19963;-62
2022/10/22 06:25:04;;;;;;;11.65;4.38;;;;;;;12.15;100.00;100780.44;10457094;28;20413;-63
2022/10/22 06:30:07;;;;;;;13.75;4.68;;;;;;;12.18;100.00;100785.50;10456702;28;20114;-62
2022/10/22 06:35:11;;;;;;;14.18;4.80;;;;;;;12.15;100.00;100791.72;10454258;28;20053;-63
2022/10/22 06:40:15;;;;;;;14.95;4.43;;;;;;;12.18;100.00;100801.22;10456630;28;20056;-63
2022/10/22 06:45:17;;;;;;;12.55;3.97;;;;;;;12.21;100.00;100806.25;10456207;28;20082;-63
2022/10/22 06:50:20;;;;;;;14.00;4.30;;;;;;;12.28;100.00;100815.50;10456094;28;20045;-64
2022/10/22 06:55:21;;;;;;;14.38;4.53;;;;;;;12.34;100.00;100822.19;10455858;28;20509;-63
2022/10/22 07:00:23;;;;;;;17.77;3.92;;;;;;;12.34;100.00;100833.53;10455719;28;20076;-62
2022/10/22 07:05:26;;;;;;;11.85;3.80;;;;;;;12.35;100.00;100836.97;10453673;28;20044;-63
2022/10/22 07:10:28;;;;;;;11.88;3.67;;;;;;;12.34;100.00;100844.00;10459046;28;20084;-63
2022/10/22 07:15:30;;;;;;;8.25;3.75;;;;;;;12.39;100.00;100848.16;10495979;28;20518;-63
2022/10/22 07:20:33;;;;;;;17.40;4.68;;;;;;;12.48;100.00;100861.63;10496270;28;20052;-63
2022/10/22 07:25:35;;;;;;;10.73;3.85;;;;;;;12.62;100.00;100863.53;10495879;28;20471;-64
2022/10/22 07:30:38;;;;;;;14.73;5.03;;;;;;;12.79;100.00;100874.09;10495695;28;20458;-64
2022/10/22 07:35:42;;;;;;;12.15;4.57;;;;;;;13.22;100.00;100881.47;10493917;28;20144;-64
2022/10/22 07:40:44;;;;;;;23.20;5.70;;;;;;;13.35;100.00;100892.16;10495366;28;20052;-64
2022/10/22 07:45:46;;;;;;;17.95;4.90;;;;;;;14.04;100.00;100890.13;10495307;28;20498;-63
2022/10/22 07:50:51;;;;;;;14.98;3.95;;;;;;;14.65;100.00;100897.19;10495482;28;20098;-62
2022/10/22 07:55:53;;;;;;;15.45;4.35;;;;;;;15.57;100.00;100896.97;10494848;28;20416;-62
2022/10/22 08:00:56;;;;;;;13.18;4.35;;;;;;;15.08;100.00;100900.84;10495092;28;20152;-63
2022/10/22 08:06:01;;;;;;;10.35;3.55;;;;;;;14.39;100.00;100907.44;10469138;28;20075;-62
2022/10/22 08:11:03;;;;;;;11.40;4.20;;;;;;;15.13;100.00;100917.22;10452351;28;20057;-63
2022/10/22 08:16:06;;;;;;;13.63;4.20;;;;;;;15.18;100.00;100916.91;10453042;28;20053;-62
2022/10/22 08:21:09;;;;;;;9.00;3.40;;;;;;;15.46;100.00;100920.47;10452788;28;20044;-62
2022/10/22 08:26:12;;;;;;;11.45;3.53;;;;;;;14.82;100.00;100932.19;10460823;28;20064;-62
2022/10/22 08:31:13;;;;;;;11.20;3.08;;;;;;;15.06;100.00;100939.53;10461199;28;20427;-63
2022/10/22 08:36:16;;;;;;;8.90;2.72;;;;;;;16.16;100.00;100944.22;10458458;28;20555;-63
2022/10/22 08:41:23;;;;;;;8.02;2.30;;;;;;;16.41;100.00;100947.88;10460980;28;20056;-62
2022/10/22 08:46:52;;;;;;;8.40;2.47;;;;;;;16.01;100.00;100964.50;10461166;28;20099;-64
2022/10/22 08:51:58;;;;;;;11.70;2.40;;;;;;;15.62;100.00;100970.34;10467300;28;20105;-65
2022/10/22 08:57:23;;;;;;;9.90;3.03;;;;;;;15.35;100.00;100971.09;10501795;28;20125;-63
2022/10/22 09:02:39;;;;;;;7.95;2.30;;;;;;;15.32;100.00;100981.78;10501500;28;20090;-64
2022/10/22 09:07:48;;;;;;;8.73;2.10;;;;;;;15.28;100.00;100990.78;10499251;28;20056;-63
2022/10/22 09:12:51;;;;;;;9.13;2.45;;;;;;;15.45;100.00;100993.28;10501117;28;20076;-62
2022/10/22 09:18:18;;;;;;;10.23;2.28;;;;;;;15.44;100.00;100999.44;10501772;28;20059;-64
2022/10/22 09:23:32;;;;;;;5.50;2.00;;;;;;;15.33;100.00;101004.53;10501362;28;20048;-65
2022/10/22 09:28:34;;;;;;;9.30;2.40;;;;;;;15.65;100.00;101014.88;10500826;28;20052;-64
2022/10/22 09:33:35;;;;;;;;;;;;;;;15.39;100.00;101019.06;10498526;28;20053;-65
2022/10/22 09:38:47;;;;;;;9.48;2.40;;;;;;;15.27;100.00;101032.03;10499920;28;19921;-62
2022/10/22 09:43:49;;;;;;;10.65;2.72;;;;;;;15.39;100.00;101035.69;10499915;28;20057;-63
2022/10/22 09:49:03;;;;;;;9.52;2.25;;;;;;;15.27;100.00;101036.44;10499739;28;20423;-71
2022/10/22 09:54:17;;;;;;;6.20;2.20;;;;;;;15.57;100.00;101038.19;10500927;28;20058;-78
2022/10/22 09:59:29;;;;;;;9.30;2.55;;;;;;;15.57;100.00;101053.97;10499769;28;20068;-79
2022/10/22 10:04:40;;;;;;;10.85;2.15;;;;;;;15.81;100.00;101063.94;10497578;28;20094;-73
2022/10/22 10:09:43;;;;;;;9.63;2.47;;;;;;;15.59;100.00;101078.38;10499891;28;20056;-77
2022/10/22 10:14:56;;;;;;;7.30;2.33;;;;;;;15.61;100.00;101079.13;10498893;28;20063;-77
2022/10/22 10:20:18;;;;;;;7.25;2.30;;;;;;;15.58;100.00;101092.47;10499599;28;20077;-75
2022/10/22 10:25:42;;;;;;;;;;;;;;;15.66;100.00;101095.47;10499226;28;20052;-74
2022/10/22 10:30:54;;;;;;;11.35;2.47;;;;;;;15.92;100.00;101102.72;10498802;28;19962;-74
2022/10/22 10:36:08;;;;;;;9.15;2.20;;;;;;;15.96;100.00;101097.22;10496829;28;20060;-73
2022/10/22 10:41:38;;;;;;;9.35;2.75;;;;;;;16.57;100.00;101095.25;10490760;28;20040;-72
2022/10/22 10:46:52;;;;;;;6.38;2.35;;;;;;;16.62;100.00;101103.69;10498185;28;20488;-71
2022/10/22 10:52:06;;;;;;;8.88;2.08;;;;;;;16.99;100.00;101114.50;10497483;28;20462;-73
2022/10/22 10:57:24;;;;;;;10.00;2.40;;;;;;;17.32;99.54;101109.78;10497705;28;20052;-75
2022/10/22 11:03:20;;;;;;;9.68;2.45;;;;;;;17.44;96.90;101094.91;10497066;28;20098;-79
2022/10/22 11:08:28;;;;;;;9.75;2.60;;;;;;;17.68;95.36;101104.72;10479083;28;20106;-75
2022/10/22 11:13:39;;;;;;;5.80;2.10;;;;;;;17.30;95.55;101094.97;10497641;28;20052;-79
2022/10/22 11:18:52;;;;;;;13.25;2.47;;;;;;;17.23;99.65;101105.09;10500042;28;20393;-78
2022/10/22 11:24:03;;;;;;;10.60;2.83;;;;;;;17.03;96.27;101116.91;10500600;28;20056;-76
2022/10/22 11:29:15;;;;;;;11.18;2.63;;;;;;;16.61;97.55;101120.47;10497951;28;20049;-75
2022/10/22 11:34:21;;;;;;;;;;;;;;;16.85;95.64;101104.00;10496683;28;20052;-74
2022/10/22 11:39:35;;;;;;;9.52;2.60;;;;;;;18.07;94.78;101088.84;10474079;28;19952;-76
2022/10/22 11:45:03;;;;;;;13.63;2.53;;;;;;;17.58;92.85;101095.75;10453344;28;20098;-77
2022/10/22 11:50:20;;;;;;;9.07;2.20;;;;;;;17.98;91.65;101097.41;10455394;28;20044;-79
2022/10/22 11:55:46;;;;;;;9.60;2.38;;;;;;;18.88;86.49;101100.75;10454748;28;20419;-77
2022/10/22 12:00:50;;;;;;;10.00;2.47;;;;;;;18.13;89.80;101092.88;10453992;28;20132;-75
2022/10/22 12:06:18;;;;;;;6.07;2.33;;;;;;;19.29;85.41;101086.28;10452858;28;20055;-78
2022/10/22 12:11:25;;;;;;;13.52;2.55;;;;;;;19.21;82.08;101096.59;10453851;28;20056;-76
2022/10/22 12:16:36;;;;;;;7.10;2.30;;;;;;;18.06;87.92;101096.91;10453770;28;20045;-79
2022/10/22 12:21:39;;;;;;;;;;;;;;;17.43;86.53;101109.03;10453879;28;20110;-77
2022/10/22 12:26:41;;;;;;;7.40;2.28;;;;;;;18.01;88.40;101113.91;10454394;28;19925;-80
2022/10/22 12:31:46;;;;;;;6.53;2.45;;;;;;;17.70;88.55;101123.09;10454334;28;20106;-77
2022/10/22 12:36:50;;;;;;;7.40;2.22;;;;;;;17.11;90.21;101114.69;10451305;28;20551;-77
2022/10/22 12:41:54;;;;;;;6.63;2.10;;;;;;;17.43;92.36;101121.38;10454584;28;20049;-74
2022/10/22 12:46:57;;;;;;;7.93;2.08;;;;;;;17.57;89.40;101115.16;10454539;28;20045;-74
2022/10/22 12:52:04;;;;;;;8.05;2.30;;;;;;;17.45;91.82;101112.41;10453175;28;20041;-74
2022/10/22 12:57:13;;;;;;;5.40;2.20;;;;;;;17.85;90.12;101102.72;10454243;28;20107;-78
2022/10/22 13:02:21;;;;;;;7.88;2.20;;;;;;;17.74;89.60;101104.31;10454845;28;20512;-80
2022/10/22 13:07:24;;;;;;;8.70;2.13;;;;;;;18.40;85.99;101107.72;10451402;28;20134;-80
2022/10/22 13:12:35;;;;;;;5.25;2.35;;;;;;;18.68;85.89;101108.34;10459956;28;20064;-79
2022/10/22 13:17:41;;;;;;;7.72;1.95;;;;;;;18.79;85.75;101107.59;10460882;28;20105;-72
2022/10/22 13:22:56;;;;;;;6.15;2.10;;;;;;;18.36;85.06;101106.25;10460558;28;20072;-74
2022/10/22 13:28:02;;;;;;;7.35;2.40;;;;;;;18.26;85.54;101101.63;10460023;28;20049;-75
2022/10/22 13:33:22;;;;;;;8.48;2.22;;;;;;;18.32;85.36;101099.50;10460435;28;20496;-80
2022/10/22 13:38:27;;;;;;;6.93;2.17;;;;;;;18.07;84.94;101103.88;10457535;28;20041;-79
2022/10/22 13:43:30;;;;;;;7.82;2.85;;;;;;;17.63;87.97;101097.13;10460194;28;20133;-77
2022/10/22 13:48:33;;;;;;;10.27;2.50;;;;;;;17.85;86.41;101097.44;10459313;28;20475;-77
2022/10/22 13:53:36;;;;;;;5.68;1.95;;;;;;;18.05;85.80;101098.69;10458785;28;20053;-76
2022/10/22 13:58:38;;;;;;;8.05;2.35;;;;;;;18.18;84.88;101100.50;10459005;28;20049;-78
2022/10/22 14:03:41;;;;;;;6.07;2.13;;;;;;;18.09;86.28;101113.41;10456897;28;20049;-74
2022/10/22 14:08:49;;;;;;;6.15;1.90;;;;;;;18.21;81.78;101105.56;10457875;28;20045;-73
2022/10/22 14:13:52;;;;;;;3.15;1.80;;;;;;;17.96;84.78;101105.44;10457716;28;20056;-71
2022/10/22 14:18:56;;;;;;;6.47;2.13;;;;;;;17.93;85.64;101105.66;10458525;28;20052;-75
2022/10/22 14:23:59;;;;;;;8.43;2.03;;;;;;;17.53;86.13;101111.03;10456687;28;20041;-81
2022/10/22 14:29:02;;;;;;;6.82;2.00;;;;;;;17.53;84.94;101108.41;10457103;28;20416;-76
2022/10/22 14:34:07;;;;;;;11.52;2.35;;;;;;;17.82;84.92;101106.41;10455361;28;20052;-81
2022/10/22 14:39:09;;;;;;;6.03;1.80;;;;;;;17.71;83.73;101107.16;10439705;28;20051;-75
2022/10/22 14:44:12;;;;;;;8.63;2.00;;;;;;;17.76;84.23;101115.59;10442555;28;20075;-75
2022/10/22 14:49:15;;;;;;;6.10;2.15;;;;;;;17.48;85.42;101117.47;10382780;28;20121;-74
2022/10/22 14:54:17;;;;;;;5.95;1.67;;;;;;;17.49;85.54;101126.25;10373916;28;20104;-77
2022/10/22 14:59:19;;;;;;;9.07;2.33;;;;;;;17.37;84.94;101131.41;10411814;28;20057;-75
2022/10/22 15:04:24;;;;;;;8.57;2.10;;;;;;;17.34;87.29;101136.00;10440159;28;20037;-77
2022/10/22 15:09:26;;;;;;;7.47;2.70;;;;;;;17.18;88.18;101150.22;10456400;28;20049;-75
2022/10/22 15:14:28;;;;;;;6.00;2.08;;;;;;;16.95;89.05;101154.34;10490669;28;20397;-73
2022/10/22 15:19:32;;;;;;;5.20;2.13;;;;;;;16.72;90.23;101151.38;10497593;28;20045;-76
2022/10/22 15:24:35;;;;;;;6.13;2.42;;;;;;;16.79;90.01;101147.41;10496449;28;20048;-76
2022/10/22 15:29:36;;;;;;;8.30;3.00;;;;;;;16.85;91.13;101156.72;10496016;28;20044;-76
2022/10/22 15:34:40;;;;;;;6.72;2.55;;;;;;;16.77;91.91;101159.00;10492065;28;20063;-75
2022/10/22 15:39:42;;;;;;;14.35;2.13;;;;;;;16.37;100.00;101157.09;10495087;28;20443;-75
2022/10/22 15:44:45;;;;;;;7.90;2.20;;;;;;;15.95;100.00;101147.31;10492855;28;20053;-76
2022/10/22 15:49:48;;;;;;;9.75;2.38;;;;;;;15.81;100.00;101146.31;10448985;28;20060;-76
2022/10/22 15:54:49;;;;;;;10.18;2.53;;;;;;;15.37;100.00;101150.66;10452176;28;20064;-73
2022/10/22 15:59:51;;;;;;;13.25;2.40;;;;;;;15.08;100.00;101145.28;10451706;28;20596;-74
2022/10/22 16:04:55;;;;;;;15.05;2.50;;;;;;;14.75;100.00;101140.97;10449543;28;20106;-75
2022/10/22 16:10:00;;;;;;;16.27;2.60;;;;;;;14.39;100.00;101146.34;10451914;28;20078;-75
2022/10/22 16:15:02;;;;;;;10.25;2.70;;;;;;;14.15;100.00;101144.13;10451417;28;20049;-74
2022/10/22 16:20:06;;;;;;;6.93;2.55;;;;;;;13.90;100.00;101153.25;10452046;28;20053;-74
2022/10/22 16:25:08;;;;;;;30.00;3.30;;;;;;;13.62;100.00;101154.66;10451208;28;20485;-74
2022/10/22 16:30:12;;;;;;;15.57;2.80;;;;;;;13.37;100.00;101162.88;10452009;28;20049;-75
2022/10/22 16:35:15;;;;;;;26.08;2.90;;;;;;;13.14;100.00;101163.06;10448580;28;20478;-73
2022/10/22 16:40:17;;;;;;;26.90;3.20;;;;;;;12.98;100.00;101167.34;10475015;28;20071;-74
2022/10/22 16:45:19;;;;;;;;;;;;;;;12.84;100.00;101162.78;10496950;28;20049;-72
2022/10/22 16:50:22;;;;;;;27.15;3.08;;;;;;;12.54;100.00;101158.03;10435153;28;19960;-73
2022/10/22 16:55:23;;;;;;;22.20;3.53;;;;;;;12.38;100.00;101155.28;10417408;28;20414;-73
2022/10/22 17:00:25;;;;;;;14.13;3.65;;;;;;;12.23;100.00;101170.72;10418102;28;20096;-74
2022/10/22 17:05:28;;;;;;;12.88;3.38;;;;;;;12.14;100.00;101171.16;10415989;28;20459;-74
2022/10/22 17:10:30;;;;;;;22.65;4.35;;;;;;;12.00;100.00;101169.09;10418426;28;20045;-73
2022/10/22 17:15:33;;;;;;;31.65;4.57;;;;;;;11.89;100.00;101177.38;10418606;28;20042;-74
2022/10/22 17:20:36;;;;;;;27.70;4.78;;;;;;;11.79;100.00;101176.94;10417993;28;20089;-73
2022/10/22 17:25:43;;;;;;;16.92;5.07;;;;;;;11.67;100.00;101179.13;10427346;28;20056;-72
2022/10/22 17:30:44;;;;;;;19.40;4.95;;;;;;;11.54;100.00;101189.28;10499054;28;20106;-74
2022/10/22 17:35:51;;;;;;;36.40;5.53;;;;;;;11.50;100.00;101192.91;10497409;28;20072;-74
2022/10/22 17:40:53;;;;;;;24.38;6.32;;;;;;;11.38;100.00;101188.16;10499962;28;20044;-74
2022/10/22 17:46:04;;;;;;;20.48;6.18;;;;;;;11.25;100.00;101193.91;10499890;28;20078;-64
2022/10/22 17:51:08;;;;;;;33.37;15.03;;;;;;;11.16;100.00;101194.28;10454573;28;20134;-66
2022/10/22 17:56:13;;;;;;;42.70;17.70;;;;;;;11.11;100.00;101201.41;10456556;28;20110;-66
2022/10/22 18:01:21;;;;;;;38.60;21.67;;;;;;;11.01;100.00;101201.78;10457533;28;20512;-66
2022/10/22 18:06:24;;;;;;;45.33;19.52;;;;;;;11.00;100.00;101197.47;10455260;28;20086;-65
2022/10/22 18:11:30;;;;;;;42.85;20.50;;;;;;;10.93;100.00;101194.25;10457040;28;20565;-66
2022/10/22 18:16:32;;;;;;;38.90;21.63;;;;;;;11.00;100.00;101205.31;10457670;28;20080;-66
2022/10/22 18:21:35;;;;;;;40.30;24.10;;;;;;;10.84;100.00;101209.41;10455699;28;20079;-65
2022/10/22 18:26:38;;;;;;;36.45;21.42;;;;;;;10.86;100.00;101215.41;10455503;28;20057;-66
2022/10/22 18:31:40;;;;;;;33.63;20.25;;;;;;;10.78;100.00;101216.56;10455306;28;20063;-65
2022/10/22 18:36:44;;;;;;;28.38;16.20;;;;;;;10.72;100.00;101216.81;10452656;28;20081;-65
2022/10/22 18:41:46;;;;;;;32.00;16.88;;;;;;;10.65;100.00;101210.97;10454644;28;20401;-66
2022/10/22 18:46:48;;;;;;;48.88;19.33;;;;;;;10.62;100.00;101210.22;10454504;28;20268;-65
2022/10/22 18:51:51;;;;;;;41.30;21.67;;;;;;;10.54;100.00;101211.34;10454450;28;20512;-66
2022/10/22 18:56:56;;;;;;;39.88;21.08;;;;;;;10.54;100.00;101203.50;10454336;28;20049;-64
2022/10/22 19:01:59;;;;;;;37.78;20.77;;;;;;;10.54;100.00;101198.28;10473507;28;20068;-65
2022/10/22 19:07:02;;;;;;;51.03;21.00;;;;;;;10.46;100.00;101197.72;10493098;28;20056;-65
2022/10/22 19:12:04;;;;;;;43.70;20.67;;;;;;;10.42;100.00;101183.06;10495911;28;20056;-66
2022/10/22 19:17:06;;;;;;;52.10;22.05;;;;;;;10.43;100.00;101180.38;10494806;28;20420;-65
2022/10/22 19:22:08;;;;;;;40.67;21.33;;;;;;;10.41;100.00;101181.34;10494929;28;20098;-64
2022/10/22 19:27:10;;;;;;;40.20;23.90;;;;;;;10.45;100.00;101187.34;10494302;28;20098;-66
2022/10/22 19:32:12;;;;;;;50.53;25.73;;;;;;;10.41;100.00;101181.34;10494209;28;20522;-65
2022/10/22 19:37:15;;;;;;;43.85;25.15;;;;;;;10.42;100.00;101177.84;10492455;28;20057;-65
2022/10/22 19:42:16;;;;;;;43.08;23.63;;;;;;;10.30;100.00;101179.97;10494692;28;20075;-65
2022/10/22 19:47:18;;;;;;;47.42;24.77;;;;;;;10.33;100.00;101167.75;10493987;28;20098;-66
2022/10/22 19:52:21;;;;;;;43.97;24.95;;;;;;;10.28;100.00;101170.50;10494255;28;20098;-68
2022/10/22 19:57:23;;;;;;;41.10;22.85;;;;;;;10.28;100.00;101171.38;10493702;28;20055;-65
2022/10/22 20:02:25;;;;;;;56.03;22.38;;;;;;;10.27;100.00;101168.81;10494647;28;20048;-64
2022/10/22 20:07:28;;;;;;;;;;;;;;;10.39;100.00;101170.97;10493050;28;20059;-64
2022/10/22 20:12:31;;;;;;;51.03;22.15;;;;;;;10.26;100.00;101178.38;10494583;28;20089;-66
2022/10/22 20:17:33;;;;;;;51.90;24.90;;;;;;;10.21;100.00;101180.31;10494669;28;20084;-66
2022/10/22 20:22:36;;;;;;;48.88;24.65;;;;;;;10.19;100.00;101182.13;10502707;28;20488;-65
2022/10/22 20:27:38;;;;;;;49.47;24.58;;;;;;;10.22;100.00;101189.84;10503121;28;20060;-66
2022/10/22 20:32:40;;;;;;;48.63;21.98;;;;;;;10.20;100.00;101194.28;10502666;28;20055;-64
2022/10/22 20:37:43;;;;;;;49.83;21.67;;;;;;;10.27;100.00;101193.13;10500412;28;20053;-65
2022/10/22 20:42:46;;;;;;;46.28;22.60;;;;;;;10.22;100.00;101202.88;10502880;28;20076;-65
2022/10/22 20:47:47;;;;;;;44.75;20.92;;;;;;;10.18;100.00;101191.72;10501934;28;20492;-66
2022/10/22 20:52:52;;;;;;;64.00;21.25;;;;;;;10.18;100.00;101181.28;10502397;28;20080;-65
2022/10/22 20:57:53;;;;;;;46.33;22.02;;;;;;;10.17;100.00;101187.38;10501899;28;20087;-64
2022/10/22 21:02:55;;;;;;;44.05;21.58;;;;;;;10.14;100.00;101191.88;10501968;28;20102;-65
2022/10/22 21:07:58;;;;;;;57.88;21.52;;;;;;;10.11;100.00;101195.44;10499447;28;20041;-65
2022/10/22 21:13:00;;;;;;;48.75;20.42;;;;;;;10.18;100.00;101193.47;10501261;28;20052;-65
2022/10/22 21:18:02;;;;;;;41.92;19.85;;;;;;;10.13;100.00;101203.22;10501081;28;20094;-65
2022/10/22 21:23:05;;;;;;;46.40;19.80;;;;;;;10.12;100.00;101170.19;10500583;28;20542;-67
2022/10/22 21:28:06;;;;;;;51.30;21.55;;;;;;;10.14;100.00;101178.81;10500780;28;20053;-65
2022/10/22 21:33:08;;;;;;;42.33;21.20;;;;;;;10.15;100.00;101191.81;10498928;28;20080;-65
2022/10/22 21:38:11;;;;;;;32.90;17.20;;;;;;;10.11;100.00;101190.22;10498454;28;20086;-64
2022/10/22 21:43:14;;;;;;;42.03;18.42;;;;;;;10.12;100.00;101191.06;10500109;28;20607;-65
2022/10/22 21:48:16;;;;;;;46.60;18.10;;;;;;;10.21;100.00;101198.56;10499973;28;20511;-64
2022/10/22 21:53:19;;;;;;;33.97;15.63;;;;;;;10.27;100.00;101206.16;10500090;28;20102;-64
2022/10/22 21:58:21;;;;;;;43.53;16.73;;;;;;;10.17;100.00;101199.59;10499452;28;20040;-64
2022/10/22 22:03:23;;;;;;;36.97;15.60;;;;;;;10.18;100.00;101196.94;10499869;28;20500;-66
2022/10/22 22:08:27;;;;;;;30.27;15.25;;;;;;;10.24;100.00;101190.66;10496696;28;20533;-66
2022/10/22 22:13:28;;;;;;;36.42;14.55;;;;;;;10.35;100.00;101192.00;10498910;28;20087;-67
2022/10/22 22:18:33;;;;;;;37.95;14.45;;;;;;;10.30;100.00;101187.81;10498803;28;20452;-64
2022/10/22 22:23:40;;;;;;;33.90;13.68;;;;;;;10.31;100.00;101173.84;10498393;28;20044;-64
2022/10/22 22:28:41;;;;;;;34.55;14.35;;;;;;;10.31;100.00;101166.03;10498899;28;20048;-65
2022/10/22 22:33:44;;;;;;;26.40;13.52;;;;;;;10.29;100.00;101182.63;10497956;28;20424;-65
2022/10/22 22:38:47;;;;;;;37.67;13.50;;;;;;;10.25;100.00;101176.69;10496745;28;20052;-66
2022/10/22 22:43:49;;;;;;;31.98;13.50;;;;;;;10.28;100.00;101160.94;10497375;28;20064;-66
2022/10/22 22:48:51;;;;;;;33.35;12.98;;;;;;;10.23;100.00;101160.22;10497275;28;20052;-65
2022/10/22 22:53:54;;;;;;;35.40;12.75;;;;;;;10.23;100.00;101154.19;10497843;28;20068;-65
2022/10/22 22:58:57;;;;;;;25.67;12.40;;;;;;;10.23;100.00;101152.41;10497444;28;20084;-65
2022/10/22 23:04:01;;;;;;;36.15;13.73;;;;;;;10.29;100.00;101157.41;10494873;28;20110;-65